createdAt,value
2023-05-20T00:04:01.996Z,12.00
2023-05-20T00:09:07.076Z,11.96
2023-05-20T00:14:10.880Z,11.95
2023-05-20T00:19:14.376Z,11.84
2023-05-20T00:24:19.496Z,11.88
2023-05-20T00:29:23.572Z,11.87
2023-05-20T00:34:27.084Z,11.79
2023-05-20T00:39:32.169Z,11.77
2023-05-20T00:44:35.744Z,11.72
2023-05-20T00:49:39.327Z,11.66
2023-05-20T00:54:44.503Z,11.67
2023-05-20T00:59:48.348Z,11.51
2023-05-20T01:04:52.158Z,11.60
2023-05-20T01:09:57.205Z,11.53
2023-05-20T01:15:06.967Z,11.56
2023-05-20T01:20:12.652Z,11.53
2023-05-20T01:25:17.754Z,11.58
2023-05-20T01:30:22.187Z,11.47
2023-05-20T01:35:26.177Z,11.48
2023-05-20T01:40:31.716Z,11.50
2023-05-20T01:45:35.548Z,11.50
2023-05-20T01:50:39.388Z,11.53
2023-05-20T01:55:44.376Z,11.47
2023-05-20T02:00:47.908Z,11.48
2023-05-20T02:05:51.623Z,11.47
2023-05-20T02:10:56.568Z,11.51
2023-05-20T02:16:00.082Z,11.50
2023-05-20T02:21:04.621Z,11.54
2023-05-20T02:26:09.662Z,11.32
2023-05-20T02:31:13.148Z,11.46
2023-05-20T02:36:17.440Z,11.52
2023-05-20T02:41:22.907Z,11.56
2023-05-20T02:46:26.444Z,11.56
2023-05-20T02:51:32.092Z,11.58
2023-05-20T02:56:37.117Z,11.52
2023-05-20T03:01:40.732Z,11.57
2023-05-20T03:06:44.853Z,11.60
2023-05-20T03:11:49.992Z,11.68
2023-05-20T03:16:55.595Z,11.68
2023-05-20T03:21:59.261Z,11.78
2023-05-20T03:27:04.196Z,11.72
2023-05-20T03:32:10.131Z,11.81
2023-05-20T03:37:14.212Z,11.91
2023-05-20T03:42:19.169Z,12.00
2023-05-20T03:47:22.736Z,11.94
2023-05-20T03:52:26.808Z,12.09
2023-05-20T03:57:32.576Z,12.23
2023-05-20T04:02:36.483Z,12.22
2023-05-20T04:07:40.152Z,12.39
2023-05-20T04:12:45.156Z,12.52
2023-05-20T04:17:50.680Z,12.64
2023-05-20T04:22:55.265Z,12.73
2023-05-20T04:28:01.124Z,12.86
2023-05-20T04:33:04.711Z,12.99
2023-05-20T04:38:08.618Z,13.17
2023-05-20T04:43:15.670Z,13.30
2023-05-20T04:48:19.240Z,13.45
2023-05-20T04:53:23.530Z,13.62
2023-05-20T04:58:29.772Z,13.75
2023-05-20T05:03:35.177Z,13.82
2023-05-20T05:08:40.020Z,13.98
2023-05-20T05:13:44.970Z,14.16
2023-05-20T05:18:48.597Z,14.11
2023-05-20T05:23:52.137Z,14.29
2023-05-20T05:28:57.429Z,14.56
2023-05-20T05:34:00.978Z,15.09
2023-05-20T05:39:04.641Z,15.39
2023-05-20T05:44:09.567Z,15.56
2023-05-20T05:49:13.128Z,15.70
2023-05-20T05:54:16.794Z,16.13
2023-05-20T05:59:21.958Z,16.78
2023-05-20T06:04:25.486Z,17.89
2023-05-20T06:09:29.061Z,19.79
2023-05-20T06:14:34.105Z,22.20
2023-05-20T06:19:37.823Z,23.91
2023-05-20T06:24:41.486Z,25.53
2023-05-20T06:29:46.437Z,26.50
2023-05-20T06:34:50.115Z,29.51
2023-05-20T06:39:55.319Z,29.53
2023-05-20T06:45:00.379Z,29.98
2023-05-20T06:50:03.924Z,30.74
2023-05-20T06:55:08.245Z,30.19
2023-05-20T07:00:15.021Z,30.55
2023-05-20T07:05:18.675Z,30.62
2023-05-20T07:10:22.214Z,29.09
2023-05-20T07:15:26.840Z,27.98
2023-05-20T07:20:30.306Z,27.66
2023-05-20T07:25:33.846Z,27.81
2023-05-20T07:30:38.977Z,28.28
2023-05-20T07:35:42.510Z,29.42
2023-05-20T07:40:45.698Z,31.37
2023-05-20T07:45:51.021Z,31.80
2023-05-20T07:50:57.306Z,32.34
2023-05-20T07:56:01.004Z,33.60
2023-05-20T08:01:05.981Z,33.66
2023-05-20T08:06:09.547Z,30.85
2023-05-20T08:11:13.169Z,28.04
2023-05-20T08:16:18.192Z,27.52
2023-05-20T08:21:21.894Z,26.67
2023-05-20T08:26:25.250Z,23.62
2023-05-20T08:31:30.322Z,23.26
2023-05-20T08:36:33.901Z,23.56
2023-05-20T08:41:38.381Z,22.27
2023-05-20T08:46:44.245Z,21.40
2023-05-20T08:51:48.478Z,20.47
2023-05-20T08:56:54.221Z,20.31
2023-05-20T09:01:59.185Z,20.30
2023-05-20T09:07:02.764Z,20.13
2023-05-20T09:12:06.939Z,19.80
2023-05-20T09:17:12.545Z,19.83
2023-05-20T09:22:16.139Z,19.98
2023-05-20T09:27:20.348Z,20.69
2023-05-20T09:32:28.430Z,21.11
2023-05-20T09:37:32.728Z,21.17
2023-05-20T09:42:39.367Z,20.65
2023-05-20T09:47:45.209Z,20.33
2023-05-20T09:52:50.144Z,20.16
2023-05-20T09:57:55.688Z,19.94
2023-05-20T10:03:01.387Z,19.79
2023-05-20T10:08:29.465Z,19.48
2023-05-20T10:13:59.244Z,19.53
2023-05-20T10:19:13.639Z,20.09
2023-05-20T10:24:17.271Z,20.48
2023-05-20T10:29:22.838Z,21.21
2023-05-20T10:34:27.836Z,21.45
2023-05-20T10:39:34.717Z,21.73
2023-05-20T10:44:44.934Z,21.84
2023-05-20T10:49:50.070Z,21.06
2023-05-20T10:54:57.764Z,20.17
2023-05-20T11:00:02.176Z,19.38
2023-05-20T11:05:12.877Z,18.77
2023-05-20T11:10:16.501Z,18.61
2023-05-20T11:15:20.027Z,19.05
2023-05-20T11:20:25.900Z,19.33
2023-05-20T11:25:29.588Z,19.39
2023-05-20T11:30:33.837Z,19.12
2023-05-20T11:35:38.939Z,18.55
2023-05-20T11:40:51.130Z,18.37
2023-05-20T11:45:57.746Z,18.21
2023-05-20T11:51:03.115Z,18.18
2023-05-20T11:56:07.099Z,17.64
2023-05-20T12:01:21.663Z,16.99
2023-05-20T12:06:28.023Z,16.24
2023-05-20T12:11:32.490Z,15.80
2023-05-20T12:16:36.932Z,15.50
2023-05-20T12:21:41.680Z,15.52
2023-05-20T12:26:45.178Z,15.85
2023-05-20T12:31:48.797Z,16.28
2023-05-20T12:36:54.081Z,16.58
2023-05-20T12:41:57.693Z,17.01
2023-05-20T12:47:01.377Z,17.22
2023-05-20T12:52:11.820Z,17.48
2023-05-20T12:57:23.060Z,17.42
2023-05-20T13:02:26.734Z,17.54
2023-05-20T13:07:32.268Z,17.69
2023-05-20T13:12:35.946Z,17.82
2023-05-20T13:17:39.558Z,17.71
2023-05-20T13:22:44.653Z,17.58
2023-05-20T13:27:48.197Z,17.37
2023-05-20T13:32:51.936Z,17.52
2023-05-20T13:37:56.993Z,17.57
2023-05-20T13:43:00.547Z,17.76
2023-05-20T13:48:04.255Z,17.76
2023-05-20T13:53:12.649Z,17.61
2023-05-20T13:58:16.303Z,17.92
2023-05-20T14:03:20.009Z,18.14
2023-05-20T14:08:25.097Z,18.27
2023-05-20T14:13:28.615Z,18.29
2023-05-20T14:18:32.360Z,18.28
2023-05-20T14:23:37.406Z,18.42
2023-05-20T14:28:41.099Z,18.38
2023-05-20T14:33:44.558Z,18.34
2023-05-20T14:38:49.826Z,18.05
2023-05-20T14:43:53.439Z,17.80
2023-05-20T14:48:57.154Z,17.65
2023-05-20T14:54:02.283Z,17.48
2023-05-20T14:59:05.861Z,17.42
2023-05-20T15:04:09.376Z,17.38
2023-05-20T15:09:14.376Z,17.28
2023-05-20T15:14:18.034Z,17.48
2023-05-20T15:19:21.566Z,17.72
2023-05-20T15:24:26.646Z,17.78
2023-05-20T15:29:30.249Z,17.54
2023-05-20T15:34:35.247Z,17.46
2023-05-20T15:39:40.184Z,17.25
2023-05-20T15:44:43.756Z,16.91
2023-05-20T15:49:47.298Z,16.64
2023-05-20T15:54:52.289Z,16.52
2023-05-20T15:59:56.064Z,16.37
2023-05-20T16:04:59.693Z,16.28
2023-05-20T16:10:04.889Z,16.18
2023-05-20T16:15:10.976Z,16.13
2023-05-20T16:20:14.744Z,16.10
2023-05-20T16:25:19.659Z,16.05
2023-05-20T16:30:23.277Z,15.85
2023-05-20T16:35:26.824Z,15.64
2023-05-20T16:40:32.127Z,15.44
2023-05-20T16:45:36.610Z,15.37
2023-05-20T16:50:40.254Z,15.14
2023-05-20T16:55:45.204Z,15.05
2023-05-20T17:00:48.837Z,14.85
2023-05-20T17:05:52.473Z,14.84
2023-05-20T17:10:57.724Z,14.67
2023-05-20T17:16:01.457Z,14.51
2023-05-20T17:21:05.042Z,14.37
2023-05-20T17:26:10.127Z,14.11
2023-05-20T17:31:13.870Z,14.07
2023-05-20T17:36:17.713Z,13.99
2023-05-20T17:41:23.262Z,13.92
2023-05-20T17:46:26.878Z,13.84
2023-05-20T17:51:31.964Z,13.59
2023-05-20T17:56:37.010Z,13.65
2023-05-20T18:01:41.808Z,13.65
2023-05-20T18:06:45.412Z,13.63
2023-05-20T18:11:50.395Z,13.59
2023-05-20T18:16:54.700Z,13.52
2023-05-20T18:21:58.760Z,13.43
2023-05-20T18:27:03.806Z,13.29
2023-05-20T18:32:08.604Z,13.09
2023-05-20T18:37:12.152Z,12.86
2023-05-20T18:42:18.664Z,12.97
2023-05-20T18:47:22.459Z,12.95
2023-05-20T18:52:26.148Z,12.88
2023-05-20T18:57:31.977Z,12.95
2023-05-20T19:02:35.578Z,12.88
2023-05-20T19:07:39.615Z,12.76
2023-05-20T19:12:44.842Z,12.68
2023-05-20T19:17:48.392Z,12.72
2023-05-20T19:22:52.494Z,12.70
2023-05-20T19:27:57.455Z,12.73
2023-05-20T19:33:02.437Z,12.73
2023-05-20T19:38:07.062Z,12.67
2023-05-20T19:43:12.052Z,12.72
2023-05-20T19:48:15.551Z,12.64
2023-05-20T19:53:20.964Z,12.61
2023-05-20T19:58:25.947Z,12.68
2023-05-20T20:03:29.512Z,12.59
2023-05-20T20:08:33.138Z,12.63
2023-05-20T20:13:38.068Z,12.70
2023-05-20T20:18:41.603Z,12.59
2023-05-20T20:23:45.170Z,12.55
2023-05-20T20:28:50.109Z,12.41
2023-05-20T20:33:53.685Z,12.49
2023-05-20T20:38:57.196Z,12.55
2023-05-20T20:44:03.806Z,12.57
2023-05-20T20:49:07.455Z,12.56
2023-05-20T20:54:11.006Z,12.58
2023-05-20T20:59:16.117Z,12.53
2023-05-20T21:04:20.476Z,12.54
2023-05-20T21:09:24.355Z,12.37
2023-05-20T21:14:29.361Z,12.37
2023-05-20T21:19:32.948Z,12.31
2023-05-20T21:24:36.500Z,12.36
2023-05-20T21:29:41.398Z,12.35
2023-05-20T21:34:44.926Z,12.29
2023-05-20T21:39:48.510Z,12.26
2023-05-20T21:44:53.412Z,12.29
2023-05-20T21:49:56.931Z,12.29
2023-05-20T21:55:00.422Z,12.30
2023-05-20T22:00:10.203Z,12.29
2023-05-20T22:05:13.903Z,12.17
2023-05-20T22:10:17.933Z,12.12
2023-05-20T22:15:23.324Z,12.12
2023-05-20T22:20:28.799Z,12.14
2023-05-20T22:25:32.461Z,12.09
2023-05-20T22:30:38.483Z,12.12
2023-05-20T22:35:41.994Z,12.07
2023-05-20T22:40:45.508Z,12.03
2023-05-20T22:45:50.734Z,12.04
2023-05-20T22:50:56.210Z,12.09
2023-05-20T22:56:00.120Z,12.09
2023-05-20T23:01:05.128Z,12.13
2023-05-20T23:06:08.689Z,12.13
2023-05-20T23:11:12.276Z,12.12
2023-05-20T23:16:17.319Z,12.16
2023-05-20T23:21:20.940Z,12.16
2023-05-20T23:26:28.976Z,12.08
2023-05-20T23:31:34.008Z,12.17
2023-05-20T23:36:37.564Z,12.24
2023-05-20T23:41:41.091Z,12.24
2023-05-20T23:46:46.184Z,12.34
2023-05-20T23:51:49.789Z,12.23
2023-05-20T23:56:53.354Z,12.17
